ADDS METAR Data INFO
IDs: Format: Raw Decoded Include TAF

Data at: 1327 UTC 19 Jul 2018

KRDD 190653Z AUTO 35004KT 10SM CLR 30/14 A2985 RMK AO2 SLP099 T03000144 $
KRDD 190553Z AUTO 00000KT 10SM 31/14 A2983 RMK AO2 SLP095 T03060139 10428 20306 $
KRDD 190453Z AUTO 16004KT 10SM CLR 33/14 A2982 RMK AO2 SLP091 T03330139 $
KRDD 190353Z AUTO 11004KT 10SM CLR 34/14 A2981 RMK AO2 SLP085 T03440139 $
KRDD 190253Z 16008KT 10SM CLR 38/14 A2979 RMK AO2 SLP081 T03780139 56007 $
KRDD 190153Z 18008KT 10SM CLR 39/13 A2980 RMK AO2 SLP081 T03940128 $
KRDD 190053Z 15012KT 10SM CLR 42/09 A2980 RMK AO2 SLP084 T04170089 $
KRDD 182353Z 15006KT 10SM CLR 42/07 A2981 RMK AO2 SLP088 T04220072 10428 20356 56019
KRDD 182253Z 16005KT 10SM CLR 42/04 A2983 RMK AO2 SLP092 T04220039
KRDD 182153Z 00000KT 10SM CLR 42/06 A2985 RMK AO2 SLP099 T04170061
KRDD 182053Z 10SM CLR 41/08 A2987 RMK AO2 SLP107 T04060083 58018
KRDD 181953Z VRB03KT 10SM CLR 40/08 A2989 RMK AO2 SLP115 T04000083
KRDD 181853Z VRB03KT 10SM CLR 37/10 A2991 RMK AO2 SLP121 T03720100
KRDD 181753Z VRB03KT 10SM CLR 36/12 A2993 RMK AO2 SLP126 T03560117 10356 20222 58009
KRDD 181653Z 00000KT 10SM CLR 33/12 A2994 RMK AO2 SLP131 T03330122
KRDD 181553Z 36004KT 10SM CLR 31/12 A2995 RMK AO2 SLP135 T03060122
KRDD 181453Z 00000KT 10SM CLR 27/14 A2995 RMK AO2 SLP135 T02720139 53011
KRDD 181353Z 00000KT 10SM CLR 24/14 A2994 RMK AO2 SLP132 T02440139
KRDD 181253Z AUTO 00000KT 10SM CLR 23/14 A2993 RMK AO2 SLP127 T02280139
KRDD 181153Z AUTO 00000KT 10SM CLR 24/14 A2992 RMK AO2 SLP124 T02390139 10317 20239 51005
KRDD 181053Z AUTO 00000KT 10SM CLR 24/13 A2992 RMK AO2 SLP124 T02440133
KRDD 180953Z AUTO 36003KT 10SM CLR 26/14 A2991 RMK AO2 SLP120 T02560144
KRDD 180853Z AUTO 36003KT 10SM CLR 26/14 A2991 RMK AO2 SLP119 T02610139 51009
KRDD 180753Z AUTO 01003KT 10SM CLR 28/14 A2990 RMK AO2 SLP117 T02780139 404280222
KRDD 180653Z AUTO 01003KT 10SM CLR 29/13 A2989 RMK AO2 SLP113 T02940133
KRDD 180553Z 01004KT 10SM CLR 32/13 A2988 RMK AO2 SLP109 T03170128 10422 20311 53018
KRDD 180453Z 15004KT 10SM CLR 32/13 A2985 RMK AO2 SLP101 T03220128
KRDD 180353Z 14008KT 10SM CLR 34/12 A2983 RMK AO2 SLP095 T03390122
KRDD 180253Z 16009KT 10SM CLR 38/10 A2982 RMK AO2 SLP090 T03830100 55001
KRDD 180153Z 16011KT 10SM CLR 41/12 A2981 RMK AO2 SLP086 T04060117